Time;durP1;ratioP1;P1;durP2;ratioP2;P2;SDS_P1;SDS_P2;PMS_P1;PMS_P2;Temp;Humidity;BMP_temperature;BMP_pressure;BME280_temperature;BME280_humidity;BME280_pressure;Samples;Min_cycle;Max_cycle;Signal;HPM_P1;HPM_P2
2022/08/30 00:01:04;;;;;;;5.05;4.55;;;;;;;;;;5034767;28;20033;-69
2022/08/30 00:03:35;;;;;;;8.48;4.47;;;;;;;;;;5035288;28;20037;-69
2022/08/30 00:06:02;;;;;;;6.80;4.32;;;;;;;;;;5034686;28;20125;-69
2022/08/30 00:08:28;;;;;;;7.90;4.32;;;;;;;;;;5034523;28;20052;-69
2022/08/30 00:10:54;;;;;;;6.40;4.35;;;;;;;;;;5034708;28;20041;-69
2022/08/30 00:13:21;;;;;;;10.18;4.78;;;;;;;;;;5034125;28;20041;-69
2022/08/30 00:15:47;;;;;;;10.77;4.40;;;;;;;;;;5034633;28;20038;-69
2022/08/30 00:18:14;;;;;;;8.05;4.63;;;;;;;;;;5034920;28;20041;-69
2022/08/30 00:20:41;;;;;;;6.18;3.97;;;;;;;;;;5034725;28;20120;-69
2022/08/30 00:23:07;;;;;;;11.27;4.43;;;;;;;;;;5034532;28;20037;-69
2022/08/30 00:25:33;;;;;;;7.93;4.38;;;;;;;;;;5034246;28;20045;-69
2022/08/30 00:27:59;;;;;;;9.63;4.38;;;;;;;;;;5034464;28;20049;-69
2022/08/30 00:30:25;;;;;;;9.48;4.68;;;;;;;;;;5034529;28;20048;-69
2022/08/30 00:32:52;;;;;;;8.85;5.15;;;;;;;;;;5034126;28;20492;-69
2022/08/30 00:35:19;;;;;;;9.60;4.38;;;;;;;;;;5034320;28;20041;-69
2022/08/30 00:37:46;;;;;;;7.35;4.75;;;;;;;;;;5034900;28;20048;-69
2022/08/30 00:40:14;;;;;;;9.98;4.50;;;;;;;;;;5016838;28;20472;-69
2022/08/30 00:42:41;;;;;;;8.32;5.22;;;;;;;;;;5034065;28;20029;-69
2022/08/30 00:45:16;;;;;;;6.30;4.90;;;;;;;;;;5034600;28;20046;-69
2022/08/30 00:47:42;;;;;;;9.23;5.00;;;;;;;;;;5034535;28;20083;-69
2022/08/30 00:50:09;;;;;;;7.30;4.82;;;;;;;;;;5034202;28;20048;-69
2022/08/30 00:52:38;;;;;;;10.35;4.55;;;;;;;;;;5034546;28;20073;-69
2022/08/30 00:55:04;;;;;;;5.65;4.30;;;;;;;;;;5034166;28;20049;-69
2022/08/30 00:57:31;;;;;;;13.80;5.18;;;;;;;;;;5034084;28;20050;-70
2022/08/30 00:59:57;;;;;;;12.95;4.80;;;;;;;;;;5034552;28;20037;-69
2022/08/30 01:02:25;;;;;;;8.07;3.95;;;;;;;;;;5034088;28;20041;-69
2022/08/30 01:04:51;;;;;;;7.18;4.03;;;;;;;;;;5034163;28;20042;-69
2022/08/30 01:07:18;;;;;;;9.15;4.20;;;;;;;;;;5034324;28;20037;-69
2022/08/30 01:09:44;;;;;;;12.05;4.38;;;;;;;;;;5034381;28;20111;-69
2022/08/30 01:12:10;;;;;;;7.40;4.00;;;;;;;;;;5034158;28;20041;-69
2022/08/30 01:14:37;;;;;;;9.85;3.95;;;;;;;;;;5034711;28;20041;-69
2022/08/30 01:17:04;;;;;;;6.78;4.13;;;;;;;;;;5034920;28;20041;-69
2022/08/30 01:19:52;;;;;;;7.97;3.78;;;;;;;;;;5034839;28;20037;-69
2022/08/30 01:22:32;;;;;;;7.15;4.30;;;;;;;;;;5034577;28;20037;-69
2022/08/30 01:24:58;;;;;;;9.23;4.78;;;;;;;;;;5034815;28;20042;-69
2022/08/30 01:27:25;;;;;;;13.88;5.15;;;;;;;;;;5033365;28;20095;-69
2022/08/30 01:29:52;;;;;;;12.05;4.07;;;;;;;;;;5034474;28;20076;-69
2022/08/30 01:32:20;;;;;;;7.95;4.50;;;;;;;;;;5034301;28;20045;-69
2022/08/30 01:34:49;;;;;;;5.95;3.72;;;;;;;;;;5037306;28;20492;-69
2022/08/30 01:37:17;;;;;;;7.15;4.53;;;;;;;;;;5037821;28;20049;-69
2022/08/30 01:39:45;;;;;;;5.38;4.35;;;;;;;;;;5037335;28;20083;-69
2022/08/30 01:42:11;;;;;;;8.15;4.20;;;;;;;;;;5037394;28;20038;-69
2022/08/30 01:44:38;;;;;;;8.80;4.05;;;;;;;;;;5037522;28;20083;-69
2022/08/30 01:47:04;;;;;;;10.68;3.92;;;;;;;;;;5037809;28;20542;-69
2022/08/30 01:49:31;;;;;;;13.10;4.43;;;;;;;;;;5037709;28;20037;-69
2022/08/30 01:51:57;;;;;;;6.88;4.07;;;;;;;;;;5037524;28;20088;-69
2022/08/30 01:54:23;;;;;;;7.97;3.53;;;;;;;;;;5037429;28;20048;-69
2022/08/30 01:56:49;;;;;;;6.70;3.47;;;;;;;;;;5037752;28;20500;-69
2022/08/30 01:59:15;;;;;;;6.28;3.65;;;;;;;;;;5037031;28;20111;-69
2022/08/30 02:01:41;;;;;;;11.18;4.28;;;;;;;;;;5036750;28;20037;-69
2022/08/30 02:04:08;;;;;;;9.43;3.90;;;;;;;;;;5037001;28;20116;-69
2022/08/30 02:06:34;;;;;;;6.63;3.42;;;;;;;;;;5036896;28;20033;-69
2022/08/30 02:09:00;;;;;;;12.23;3.50;;;;;;;;;;5037433;28;20053;-69
2022/08/30 02:11:26;;;;;;;8.60;4.70;;;;;;;;;;5036874;28;20053;-69
2022/08/30 02:13:53;;;;;;;12.68;4.57;;;;;;;;;;5036676;28;20045;-69
2022/08/30 02:16:23;;;;;;;10.68;3.58;;;;;;;;;;5036751;28;20044;-69
2022/08/30 02:18:50;;;;;;;10.20;4.10;;;;;;;;;;5037361;28;20061;-69
2022/08/30 02:21:16;;;;;;;5.68;3.78;;;;;;;;;;5036647;28;20257;-69
2022/08/30 02:23:43;;;;;;;6.57;4.10;;;;;;;;;;5036928;28;20033;-69
2022/08/30 02:26:09;;;;;;;11.15;3.97;;;;;;;;;;5036307;28;20048;-69
2022/08/30 02:28:36;;;;;;;6.88;4.07;;;;;;;;;;5036221;28;20041;-69
2022/08/30 02:31:02;;;;;;;7.50;4.25;;;;;;;;;;5036749;28;20048;-69
2022/08/30 02:33:28;;;;;;;5.80;4.10;;;;;;;;;;5036652;28;20083;-69
2022/08/30 02:35:55;;;;;;;10.07;4.80;;;;;;;;;;5036050;28;20492;-69
2022/08/30 02:38:22;;;;;;;7.65;4.45;;;;;;;;;;5036021;28;20038;-69
2022/08/30 02:40:48;;;;;;;14.20;5.10;;;;;;;;;;5036556;28;20132;-69
2022/08/30 02:43:15;;;;;;;13.85;4.68;;;;;;;;;;5035821;28;20120;-69
2022/08/30 02:45:41;;;;;;;8.32;4.05;;;;;;;;;;5035149;28;20124;-69
2022/08/30 02:48:08;;;;;;;10.52;4.13;;;;;;;;;;5036016;28;20072;-69
2022/08/30 02:50:34;;;;;;;12.88;4.13;;;;;;;;;;5035864;28;20045;-69
2022/08/30 02:53:00;;;;;;;12.52;4.13;;;;;;;;;;5035723;28;20033;-69
2022/08/30 02:55:26;;;;;;;11.50;3.90;;;;;;;;;;5036315;28;20045;-69
2022/08/30 02:57:52;;;;;;;5.75;2.88;;;;;;;;;;5035428;28;20064;-69
2022/08/30 03:00:19;;;;;;;7.50;3.38;;;;;;;;;;5036839;28;20084;-69
2022/08/30 03:02:46;;;;;;;8.45;3.22;;;;;;;;;;5036060;28;20484;-69
2022/08/30 03:05:13;;;;;;;13.45;3.30;;;;;;;;;;5036042;28;20033;-69
2022/08/30 03:07:40;;;;;;;7.22;3.85;;;;;;;;;;5036802;28;20126;-69
2022/08/30 03:10:06;;;;;;;7.25;3.63;;;;;;;;;;5036756;28;20037;-69
2022/08/30 03:12:33;;;;;;;10.52;3.53;;;;;;;;;;5035701;28;20060;-69
2022/08/30 03:14:59;;;;;;;8.15;3.83;;;;;;;;;;5035917;28;20038;-69
2022/08/30 03:17:25;;;;;;;9.55;3.45;;;;;;;;;;5036240;28;20076;-69
2022/08/30 03:19:51;;;;;;;8.85;3.90;;;;;;;;;;5035782;28;20030;-69
2022/08/30 03:22:18;;;;;;;7.57;3.97;;;;;;;;;;5035754;28;20037;-69
2022/08/30 03:24:44;;;;;;;7.80;3.95;;;;;;;;;;5035664;28;20039;-69
2022/08/30 03:27:11;;;;;;;7.00;3.88;;;;;;;;;;5035647;28;20116;-69
2022/08/30 03:29:38;;;;;;;12.55;4.18;;;;;;;;;;5035350;28;20396;-69
2022/08/30 03:32:05;;;;;;;9.85;4.07;;;;;;;;;;5035511;28;20558;-69
2022/08/30 03:34:31;;;;;;;9.00;4.40;;;;;;;;;;5035484;28;20492;-69
2022/08/30 03:36:57;;;;;;;5.90;4.10;;;;;;;;;;5035677;28;20068;-69
2022/08/30 03:39:24;;;;;;;9.82;4.57;;;;;;;;;;5035496;28;20616;-69
2022/08/30 03:41:50;;;;;;;7.30;3.83;;;;;;;;;;5035308;28;20033;-69
2022/08/30 03:44:16;;;;;;;8.60;4.30;;;;;;;;;;5034886;28;20037;-69
2022/08/30 03:46:44;;;;;;;14.20;3.90;;;;;;;;;;5035830;28;20049;-69
2022/08/30 03:49:10;;;;;;;9.60;3.88;;;;;;;;;;5035139;28;20049;-69
2022/08/30 03:51:36;;;;;;;9.07;3.80;;;;;;;;;;5034948;28;20040;-69
2022/08/30 03:54:02;;;;;;;11.00;4.63;;;;;;;;;;5035995;28;20060;-69
2022/08/30 03:56:28;;;;;;;11.70;4.47;;;;;;;;;;5034616;28;20519;-69
2022/08/30 03:58:54;;;;;;;8.20;4.50;;;;;;;;;;5035129;28;20527;-69
2022/08/30 04:01:20;;;;;;;10.48;4.30;;;;;;;;;;5035141;28;20071;-69
2022/08/30 04:03:46;;;;;;;7.18;5.50;;;;;;;;;;5034850;28;20072;-69
2022/08/30 04:06:13;;;;;;;10.98;5.38;;;;;;;;;;5035227;28;20033;-69
2022/08/30 04:08:39;;;;;;;7.68;4.25;;;;;;;;;;5035011;28;20053;-69
2022/08/30 04:11:06;;;;;;;6.82;4.88;;;;;;;;;;5035092;28;20036;-69
2022/08/30 04:13:32;;;;;;;10.32;5.00;;;;;;;;;;5034756;28;20087;-69
2022/08/30 04:15:59;;;;;;;7.25;4.93;;;;;;;;;;5034661;28;20064;-69
2022/08/30 04:18:25;;;;;;;9.73;4.80;;;;;;;;;;5034686;28;20045;-69
2022/08/30 04:20:52;;;;;;;8.80;3.85;;;;;;;;;;5034574;28;20048;-69
2022/08/30 04:23:19;;;;;;;6.85;4.00;;;;;;;;;;5017671;28;20365;-69
2022/08/30 04:25:45;;;;;;;6.40;3.75;;;;;;;;;;5034809;28;20044;-69
2022/08/30 04:28:11;;;;;;;7.95;4.70;;;;;;;;;;5034245;28;20048;-69
2022/08/30 04:30:39;;;;;;;7.35;4.20;;;;;;;;;;5034456;28;20049;-69
2022/08/30 04:33:06;;;;;;;6.30;4.70;;;;;;;;;;5034667;28;20044;-69
2022/08/30 04:35:32;;;;;;;6.85;4.60;;;;;;;;;;5034920;28;20041;-69
2022/08/30 04:37:58;;;;;;;6.80;5.07;;;;;;;;;;5034758;28;20045;-69
2022/08/30 04:40:25;;;;;;;11.30;5.35;;;;;;;;;;5035160;28;20030;-69
2022/08/30 04:42:53;;;;;;;12.38;4.90;;;;;;;;;;5034397;28;20033;-69
2022/08/30 04:45:20;;;;;;;20.33;4.93;;;;;;;;;;5035091;28;20075;-69
2022/08/30 04:47:46;;;;;;;14.35;5.50;;;;;;;;;;5035120;28;20053;-69
2022/08/30 04:50:13;;;;;;;8.30;5.32;;;;;;;;;;5034586;28;20080;-69
2022/08/30 04:52:39;;;;;;;10.65;4.28;;;;;;;;;;5035086;28;20045;-69
2022/08/30 04:55:06;;;;;;;13.38;4.10;;;;;;;;;;5034636;28;20041;-69
2022/08/30 04:57:32;;;;;;;11.35;4.18;;;;;;;;;;5034449;28;20049;-69
2022/08/30 04:59:58;;;;;;;9.48;3.85;;;;;;;;;;5034281;28;20033;-69
2022/08/30 05:02:24;;;;;;;11.43;4.60;;;;;;;;;;5034094;28;20038;-69
2022/08/30 05:07:35;;;;;;;6.55;4.53;;;;;;;;;;5033862;28;20139;-69
2022/08/30 05:10:01;;;;;;;6.40;3.90;;;;;;;;;;5038211;28;20045;-69
2022/08/30 05:12:27;;;;;;;4.57;3.83;;;;;;;;;;5037676;28;20469;-69
2022/08/30 05:14:56;;;;;;;6.25;4.50;;;;;;;;;;5037596;28;20069;-69
2022/08/30 05:17:22;;;;;;;9.63;4.03;;;;;;;;;;5037522;28;20045;-69
2022/08/30 05:19:48;;;;;;;8.27;3.80;;;;;;;;;;5038381;28;20065;-69
2022/08/30 05:22:14;;;;;;;8.82;3.58;;;;;;;;;;5038304;28;20048;-69
2022/08/30 05:24:40;;;;;;;10.80;3.70;;;;;;;;;;5037737;28;20554;-69
2022/08/30 05:27:06;;;;;;;5.75;3.17;;;;;;;;;;5037511;28;20091;-69
2022/08/30 05:29:33;;;;;;;6.70;3.50;;;;;;;;;;5037372;28;20045;-69
2022/08/30 05:31:59;;;;;;;5.45;3.67;;;;;;;;;;5037292;28;20362;-69
2022/08/30 05:34:25;;;;;;;7.03;3.78;;;;;;;;;;5037458;28;20120;-69
2022/08/30 05:36:52;;;;;;;8.07;3.90;;;;;;;;;;5038069;28;20065;-69
2022/08/30 05:39:18;;;;;;;11.27;4.05;;;;;;;;;;5037660;28;20034;-69
2022/08/30 05:41:44;;;;;;;5.68;3.10;;;;;;;;;;5037664;28;20156;-69
2022/08/30 05:44:10;;;;;;;5.05;3.15;;;;;;;;;;5037219;28;20034;-69
2022/08/30 05:46:38;;;;;;;6.40;3.42;;;;;;;;;;5037909;28;20045;-69
2022/08/30 05:49:06;;;;;;;6.68;3.03;;;;;;;;;;5037143;28;20429;-69
2022/08/30 05:51:33;;;;;;;6.22;2.80;;;;;;;;;;5037246;28;20170;-69
2022/08/30 05:54:00;;;;;;;8.30;3.22;;;;;;;;;;5037452;28;20051;-69
2022/08/30 05:56:27;;;;;;;10.85;5.85;;;;;;;;;;5036870;28;20048;-69
2022/08/30 05:58:54;;;;;;;9.95;6.32;;;;;;;;;;5036668;28;20512;-68
2022/08/30 06:01:20;;;;;;;13.45;7.75;;;;;;;;;;5037328;28;20033;-69
2022/08/30 06:03:47;;;;;;;13.25;8.15;;;;;;;;;;5036915;28;20048;-69
2022/08/30 06:06:13;;;;;;;11.68;7.30;;;;;;;;;;5036968;28;20037;-69
2022/08/30 06:08:39;;;;;;;11.85;6.45;;;;;;;;;;5037267;28;20130;-69
2022/08/30 06:11:05;;;;;;;10.07;4.93;;;;;;;;;;5036856;28;20033;-69
2022/08/30 06:13:31;;;;;;;7.22;3.83;;;;;;;;;;5036823;28;20559;-69
2022/08/30 06:15:57;;;;;;;5.15;3.10;;;;;;;;;;5036790;28;20033;-69
2022/08/30 06:18:23;;;;;;;7.63;3.70;;;;;;;;;;5036950;28;20045;-69
2022/08/30 06:20:50;;;;;;;7.60;3.30;;;;;;;;;;5036686;28;20127;-69
2022/08/30 06:23:16;;;;;;;11.10;3.40;;;;;;;;;;5036274;28;20399;-69
2022/08/30 06:25:43;;;;;;;7.25;3.75;;;;;;;;;;5036188;28;20083;-69
2022/08/30 06:28:10;;;;;;;7.47;3.95;;;;;;;;;;5036717;28;20080;-69
2022/08/30 06:30:36;;;;;;;5.80;3.70;;;;;;;;;;5036247;28;20052;-69
2022/08/30 06:33:02;;;;;;;10.15;3.70;;;;;;;;;;5036489;28;20045;-69
2022/08/30 06:35:30;;;;;;;6.95;4.07;;;;;;;;;;5036555;28;20030;-69
2022/08/30 06:37:56;;;;;;;8.70;3.72;;;;;;;;;;5037235;28;20103;-69
2022/08/30 06:40:22;;;;;;;7.13;3.63;;;;;;;;;;5036252;28;20044;-69
2022/08/30 06:42:50;;;;;;;7.38;5.43;;;;;;;;;;5035778;28;20029;-69
2022/08/30 06:45:16;;;;;;;10.23;4.50;;;;;;;;;;5036201;28;20041;-69
2022/08/30 06:47:42;;;;;;;7.57;4.53;;;;;;;;;;5036164;28;20124;-69
2022/08/30 06:50:09;;;;;;;8.73;4.50;;;;;;;;;;5035802;28;20485;-69
2022/08/30 06:52:35;;;;;;;11.45;6.65;;;;;;;;;;5035757;28;20033;-69
2022/08/30 06:55:01;;;;;;;11.80;6.18;;;;;;;;;;5035704;28;20068;-69
2022/08/30 06:57:27;;;;;;;10.45;5.40;;;;;;;;;;5035898;28;20049;-69
2022/08/30 06:59:57;;;;;;;5.75;3.90;;;;;;;;;;5036552;28;20481;-69
2022/08/30 07:02:24;;;;;;;11.73;4.10;;;;;;;;;;5035957;28;20037;-69
2022/08/30 07:04:50;;;;;;;6.75;3.80;;;;;;;;;;5035788;28;20033;-69
2022/08/30 07:07:16;;;;;;;8.55;4.00;;;;;;;;;;5036065;28;20041;-69
2022/08/30 07:09:43;;;;;;;7.18;3.80;;;;;;;;;;5035783;28;20046;-69
2022/08/30 07:12:10;;;;;;;7.38;3.67;;;;;;;;;;5035434;28;20037;-69
2022/08/30 07:14:36;;;;;;;7.13;4.05;;;;;;;;;;5036168;28;20029;-69
2022/08/30 07:18:49;;;;;;;9.30;4.20;;;;;;;;;;5036025;28;20045;-69
2022/08/30 07:19:49;;;;;;;6.10;3.83;;;;;;;;;;5034963;28;20096;-69
2022/08/30 07:22:15;;;;;;;7.97;3.83;;;;;;;;;;5035773;28;20037;-69
2022/08/30 07:24:41;;;;;;;9.63;3.88;;;;;;;;;;5035743;28;20037;-69
2022/08/30 07:27:07;;;;;;;8.90;3.65;;;;;;;;;;5035655;28;20083;-69
2022/08/30 07:29:33;;;;;;;9.43;3.78;;;;;;;;;;5035707;28;20041;-69
2022/08/30 07:31:59;;;;;;;5.38;3.72;;;;;;;;;;5034803;28;20076;-69
2022/08/30 07:34:26;;;;;;;4.20;3.72;;;;;;;;;;5035604;28;20041;-69
2022/08/30 07:36:52;;;;;;;8.35;3.20;;;;;;;;;;5035090;28;20132;-69
2022/08/30 07:39:18;;;;;;;9.32;3.67;;;;;;;;;;5035248;28;20080;-69
2022/08/30 07:41:45;;;;;;;4.35;2.80;;;;;;;;;;5035208;28;20042;-69
2022/08/30 07:44:12;;;;;;;5.95;2.85;;;;;;;;;;5035007;28;20037;-69
2022/08/30 07:46:38;;;;;;;7.32;2.95;;;;;;;;;;5035117;28;20118;-69
2022/08/30 07:49:05;;;;;;;4.55;3.28;;;;;;;;;;5035304;28;20072;-69
2022/08/30 07:51:32;;;;;;;8.77;3.33;;;;;;;;;;5034747;28;20071;-69
2022/08/30 07:53:59;;;;;;;4.57;3.28;;;;;;;;;;5034566;28;20115;-69
2022/08/30 07:56:25;;;;;;;6.65;3.28;;;;;;;;;;5034589;28;20065;-69
2022/08/30 07:58:52;;;;;;;6.07;3.15;;;;;;;;;;5034963;28;20107;-69
2022/08/30 08:01:18;;;;;;;6.85;3.40;;;;;;;;;;5035168;28;20033;-69
2022/08/30 08:03:45;;;;;;;8.13;3.78;;;;;;;;;;5035873;28;20036;-69
2022/08/30 08:06:14;;;;;;;5.35;3.00;;;;;;;;;;5034791;28;20547;-69
2022/08/30 08:08:40;;;;;;;8.00;3.50;;;;;;;;;;5034995;28;20050;-69
2022/08/30 08:11:13;;;;;;;5.38;3.35;;;;;;;;;;5034721;28;20111;-69
2022/08/30 08:13:39;;;;;;;7.07;2.85;;;;;;;;;;5034190;28;20039;-69
2022/08/30 08:16:06;;;;;;;11.95;3.85;;;;;;;;;;5034385;28;20115;-69
2022/08/30 08:18:32;;;;;;;6.43;3.42;;;;;;;;;;5035215;28;20045;-69
2022/08/30 08:20:59;;;;;;;6.93;3.40;;;;;;;;;;5034576;28;20037;-69
2022/08/30 08:23:25;;;;;;;8.85;3.70;;;;;;;;;;5034481;28;20086;-69
2022/08/30 08:25:51;;;;;;;7.13;2.60;;;;;;;;;;5034196;28;20041;-69
2022/08/30 08:28:18;;;;;;;7.40;2.97;;;;;;;;;;5033986;28;20129;-69
2022/08/30 08:30:44;;;;;;;7.07;3.45;;;;;;;;;;5034852;28;20110;-69
2022/08/30 08:33:12;;;;;;;8.70;3.33;;;;;;;;;;5035197;28;20029;-69
2022/08/30 08:35:38;;;;;;;7.32;3.30;;;;;;;;;;5034367;28;20037;-69
2022/08/30 08:38:04;;;;;;;6.55;3.60;;;;;;;;;;5034714;28;20515;-69
2022/08/30 08:40:35;;;;;;;9.98;3.42;;;;;;;;;;5034368;28;20068;-69
2022/08/30 08:43:05;;;;;;;8.65;3.60;;;;;;;;;;5035260;28;20077;-69
2022/08/30 08:45:31;;;;;;;5.95;3.33;;;;;;;;;;5038722;28;20048;-69
2022/08/30 08:47:59;;;;;;;4.25;3.20;;;;;;;;;;5038394;28;20057;-69
2022/08/30 08:50:26;;;;;;;11.40;3.97;;;;;;;;;;5038110;28;20076;-69
2022/08/30 08:55:44;;;;;;;6.15;3.33;;;;;;;;;;5037808;28;20091;-69
2022/08/30 08:58:16;;;;;;;6.07;3.42;;;;;;;;;;5038416;28;20119;-69
2022/08/30 09:00:42;;;;;;;8.05;3.42;;;;;;;;;;5038871;28;20124;-69
2022/08/30 09:03:12;;;;;;;6.82;3.47;;;;;;;;;;5038475;28;20073;-69
2022/08/30 09:05:39;;;;;;;6.38;3.13;;;;;;;;;;5038483;28;20041;-69
2022/08/30 09:08:07;;;;;;;10.07;3.45;;;;;;;;;;5038381;28;20080;-69
2022/08/30 09:10:33;;;;;;;4.00;3.53;;;;;;;;;;5038303;28;20042;-69
2022/08/30 09:13:00;;;;;;;9.93;3.65;;;;;;;;;;5037994;28;20037;-69
2022/08/30 09:15:28;;;;;;;5.70;3.78;;;;;;;;;;5038977;28;20048;-69
2022/08/30 09:17:58;;;;;;;4.65;3.42;;;;;;;;;;5038237;28;20052;-69
2022/08/30 09:20:26;;;;;;;7.00;3.90;;;;;;;;;;5038433;28;20376;-69
2022/08/30 09:22:53;;;;;;;8.20;3.58;;;;;;;;;;5038041;28;20040;-69
2022/08/30 09:25:24;;;;;;;9.45;3.58;;;;;;;;;;5038011;28;20038;-69
2022/08/30 09:27:51;;;;;;;4.53;3.55;;;;;;;;;;5037739;28;20045;-69
2022/08/30 09:30:20;;;;;;;5.43;4.20;;;;;;;;;;5037567;28;20052;-69
2022/08/30 09:32:56;;;;;;;4.22;3.83;;;;;;;;;;5037927;28;20510;-69
2022/08/30 09:35:24;;;;;;;6.05;3.75;;;;;;;;;;5037849;28;20107;-69
2022/08/30 09:37:55;;;;;;;5.38;4.03;;;;;;;;;;5037481;28;20095;-69
2022/08/30 09:40:21;;;;;;;;;;;;;;;;;;5038173;28;20116;-69
2022/08/30 09:43:07;;;;;;;4.85;3.67;;;;;;;;;;5037468;28;19913;-69
2022/08/30 09:45:41;;;;;;;5.60;3.78;;;;;;;;;;5037566;28;20029;-69
2022/08/30 09:48:22;;;;;;;7.35;4.00;;;;;;;;;;5037269;28;20092;-69
2022/08/30 09:50:52;;;;;;;5.18;3.92;;;;;;;;;;5037216;28;20040;-69
2022/08/30 09:53:24;;;;;;;4.03;3.00;;;;;;;;;;5037464;28;20124;-69
2022/08/30 09:56:13;;;;;;;6.53;3.97;;;;;;;;;;5038304;28;20038;-69
2022/08/30 09:58:53;;;;;;;7.63;3.97;;;;;;;;;;5036913;28;20057;-69
2022/08/30 10:01:24;;;;;;;4.93;3.10;;;;;;;;;;5037925;28;20037;-69
2022/08/30 10:03:55;;;;;;;8.27;3.30;;;;;;;;;;5037586;28;20037;-69
2022/08/30 10:06:29;;;;;;;5.40;3.53;;;;;;;;;;5037242;28;20050;-69
2022/08/30 10:09:03;;;;;;;5.68;3.00;;;;;;;;;;5037253;28;20053;-69
2022/08/30 10:11:29;;;;;;;5.70;3.15;;;;;;;;;;5036905;28;20043;-69
2022/08/30 10:14:13;;;;;;;7.38;3.05;;;;;;;;;;5036711;28;20041;-69
2022/08/30 10:16:39;;;;;;;4.95;3.03;;;;;;;;;;5036912;28;20045;-69
2022/08/30 10:19:24;;;;;;;7.82;3.15;;;;;;;;;;5037380;28;20056;-69
2022/08/30 10:21:57;;;;;;;4.85;2.92;;;;;;;;;;5036535;28;20094;-69
2022/08/30 10:24:29;;;;;;;6.15;3.20;;;;;;;;;;5036559;28;20033;-69
2022/08/30 10:27:07;;;;;;;8.63;2.90;;;;;;;;;;5036721;28;20045;-69
2022/08/30 10:29:51;;;;;;;5.32;3.10;;;;;;;;;;5036256;28;20578;-69
2022/08/30 10:32:23;;;;;;;5.95;3.25;;;;;;;;;;5036459;28;20087;-69
2022/08/30 10:34:54;;;;;;;5.15;3.05;;;;;;;;;;5036882;28;20081;-69
2022/08/30 10:37:23;;;;;;;5.20;2.60;;;;;;;;;;5036432;28;20037;-69
2022/08/30 10:41:11;;;;;;;4.07;3.17;;;;;;;;;;5036094;28;20042;-69
2022/08/30 10:42:48;;;;;;;3.42;2.70;;;;;;;;;;5035619;28;20591;-69
2022/08/30 10:45:16;;;;;;;4.43;2.50;;;;;;;;;;5036085;28;20041;-69
2022/08/30 10:47:54;;;;;;;5.57;2.70;;;;;;;;;;5035811;28;20042;-69
2022/08/30 10:50:23;;;;;;;5.75;2.78;;;;;;;;;;5035911;28;20073;-69
2022/08/30 10:53:07;;;;;;;4.30;3.10;;;;;;;;;;5035735;28;20033;-69
2022/08/30 10:55:36;;;;;;;4.38;2.78;;;;;;;;;;5036269;28;20036;-69
2022/08/30 10:58:04;;;;;;;4.07;2.97;;;;;;;;;;5035416;28;20057;-69
2022/08/30 11:00:37;;;;;;;3.95;2.90;;;;;;;;;;5036000;28;20094;-69
2022/08/30 11:03:18;;;;;;;11.18;4.00;;;;;;;;;;5036481;28;20034;-69
2022/08/30 11:05:53;;;;;;;8.18;2.83;;;;;;;;;;5035279;28;20050;-69
2022/08/30 11:08:38;;;;;;;4.20;3.10;;;;;;;;;;5036312;28;20061;-69
2022/08/30 11:11:04;;;;;;;4.35;2.55;;;;;;;;;;5035826;28;20029;-69
2022/08/30 11:13:32;;;;;;;4.78;2.90;;;;;;;;;;5035506;28;20116;-69
2022/08/30 11:16:03;;;;;;;6.60;2.90;;;;;;;;;;5035685;28;20037;-69
2022/08/30 11:18:32;;;;;;;4.32;3.00;;;;;;;;;;5036065;28;20046;-69
2022/08/30 11:21:17;;;;;;;6.45;2.80;;;;;;;;;;5036181;28;20037;-69
2022/08/30 11:23:57;;;;;;;4.32;2.70;;;;;;;;;;5035935;28;20103;-69
2022/08/30 11:26:49;;;;;;;4.33;2.67;;;;;;;;;;5035528;28;20038;-69
2022/08/30 11:29:31;;;;;;;3.25;2.70;;;;;;;;;;5032321;28;20292;-69
2022/08/30 11:31:58;;;;;;;3.92;2.85;;;;;;;;;;5035306;28;20033;-69
2022/08/30 11:34:43;;;;;;;4.40;2.72;;;;;;;;;;5035570;28;20098;-69
2022/08/30 11:37:11;;;;;;;3.67;2.70;;;;;;;;;;5035265;28;20495;-69
2022/08/30 11:39:46;;;;;;;5.00;3.03;;;;;;;;;;5035267;28;20064;-69
2022/08/30 11:42:32;;;;;;;7.25;3.28;;;;;;;;;;5034877;28;20124;-69
2022/08/30 11:45:17;;;;;;;10.15;3.22;;;;;;;;;;5036227;28;20041;-69
2022/08/30 11:47:54;;;;;;;4.57;2.55;;;;;;;;;;5034709;28;20087;-69
2022/08/30 11:50:36;;;;;;;3.10;2.60;;;;;;;;;;5035650;28;20100;-69
2022/08/30 11:53:14;;;;;;;5.15;2.60;;;;;;;;;;5035242;28;20029;-69
2022/08/30 11:55:40;;;;;;;5.55;2.40;;;;;;;;;;5035741;28;20041;-69
2022/08/30 11:58:28;;;;;;;5.18;2.20;;;;;;;;;;5035090;28;20057;-69
2022/08/30 12:01:17;;;;;;;8.25;2.35;;;;;;;;;;5034609;28;20132;-69
2022/08/30 12:03:44;;;;;;;5.80;2.00;;;;;;;;;;5035188;28;20041;-69
2022/08/30 12:06:11;;;;;;;6.10;1.70;;;;;;;;;;5034828;28;20531;-69
2022/08/30 12:08:42;;;;;;;4.43;1.73;;;;;;;;;;5034487;28;20129;-69
2022/08/30 12:11:11;;;;;;;5.40;2.00;;;;;;;;;;5034690;28;20029;-69
2022/08/30 12:13:37;;;;;;;5.07;2.03;;;;;;;;;;5034563;28;20097;-69
2022/08/30 12:16:15;;;;;;;5.63;2.20;;;;;;;;;;5034296;28;20036;-69
2022/08/30 12:18:46;;;;;;;7.90;2.10;;;;;;;;;;5035077;28;20099;-69
2022/08/30 12:21:14;;;;;;;4.25;1.90;;;;;;;;;;5034588;28;20037;-69
2022/08/30 12:23:58;;;;;;;4.97;2.05;;;;;;;;;;5034488;28;20492;-69
2022/08/30 12:26:24;;;;;;;3.70;1.98;;;;;;;;;;5034431;28;20508;-69
2022/08/30 12:29:08;;;;;;;7.97;2.08;;;;;;;;;;5034016;28;20053;-69
2022/08/30 12:31:39;;;;;;;2.15;1.63;;;;;;;;;;5034767;28;20065;-69
2022/08/30 12:34:06;;;;;;;7.78;1.90;;;;;;;;;;5034720;28;20079;-69
2022/08/30 12:36:40;;;;;;;2.78;1.80;;;;;;;;;;5034329;28;20124;-69
2022/08/30 12:39:11;;;;;;;4.78;2.28;;;;;;;;;;5034602;28;20049;-69
2022/08/30 12:41:37;;;;;;;8.23;3.00;;;;;;;;;;5034367;28;20033;-69
2022/08/30 12:44:03;;;;;;;5.18;1.90;;;;;;;;;;5034250;28;20049;-69
2022/08/30 12:46:30;;;;;;;7.68;3.10;;;;;;;;;;5034007;28;20132;-69
2022/08/30 12:48:56;;;;;;;5.05;1.90;;;;;;;;;;5034863;28;20080;-69
2022/08/30 12:51:38;;;;;;;5.20;1.70;;;;;;;;;;5034399;28;20120;-69
2022/08/30 12:54:06;;;;;;;6.30;1.80;;;;;;;;;;5033885;28;20034;-69
2022/08/30 12:56:49;;;;;;;5.05;2.03;;;;;;;;;;5034245;28;20042;-69
2022/08/30 12:59:35;;;;;;;2.80;1.52;;;;;;;;;;5034550;28;20115;-69
2022/08/30 13:02:21;;;;;;;4.85;2.08;;;;;;;;;;5034161;28;20046;-69
2022/08/30 13:04:48;;;;;;;6.43;1.73;;;;;;;;;;5035073;28;20116;-69
2022/08/30 13:07:28;;;;;;;9.05;2.20;;;;;;;;;;5034488;28;20038;-69
2022/08/30 13:10:00;;;;;;;7.55;1.77;;;;;;;;;;5035240;28;20065;-69
2022/08/30 13:12:27;;;;;;;5.53;1.80;;;;;;;;;;5034287;28;20033;-69
2022/08/30 13:15:08;;;;;;;3.70;1.50;;;;;;;;;;5034028;28;20091;-69
2022/08/30 13:17:34;;;;;;;7.05;1.48;;;;;;;;;;5034993;28;20112;-69
2022/08/30 13:20:00;;;;;;;3.08;1.42;;;;;;;;;;5034360;28;20045;-69
2022/08/30 13:22:28;;;;;;;4.63;1.48;;;;;;;;;;5034894;28;20041;-69
2022/08/30 13:24:55;;;;;;;6.15;2.20;;;;;;;;;;5034876;28;20515;-69
2022/08/30 13:27:21;;;;;;;6.05;2.10;;;;;;;;;;5033788;28;20041;-69
2022/08/30 13:29:47;;;;;;;6.40;2.17;;;;;;;;;;5036391;28;20545;-69
2022/08/30 13:32:14;;;;;;;7.18;2.65;;;;;;;;;;5037898;28;20036;-69
2022/08/30 13:34:41;;;;;;;4.72;2.30;;;;;;;;;;5037798;28;20498;-69
2022/08/30 13:37:07;;;;;;;4.80;2.55;;;;;;;;;;5037929;28;20578;-69
2022/08/30 13:39:34;;;;;;;5.82;2.47;;;;;;;;;;5037476;28;20484;-69
2022/08/30 13:42:00;;;;;;;4.63;2.38;;;;;;;;;;5037305;28;20049;-69
2022/08/30 13:44:26;;;;;;;4.35;2.33;;;;;;;;;;5037758;28;20044;-69
2022/08/30 13:46:55;;;;;;;5.05;2.40;;;;;;;;;;5037720;28;20041;-69
2022/08/30 13:49:28;;;;;;;8.07;2.20;;;;;;;;;;5037478;28;20049;-69
2022/08/30 13:51:54;;;;;;;7.40;2.58;;;;;;;;;;5038422;28;20044;-69
2022/08/30 13:54:22;;;;;;;4.88;2.63;;;;;;;;;;5037557;28;20045;-69
2022/08/30 13:56:49;;;;;;;7.25;2.03;;;;;;;;;;5038047;28;20037;-69
2022/08/30 13:59:15;;;;;;;8.15;2.22;;;;;;;;;;5037286;28;20111;-69
2022/08/30 14:01:41;;;;;;;5.00;1.90;;;;;;;;;;5037360;28;20045;-69
2022/08/30 14:04:08;;;;;;;4.40;2.00;;;;;;;;;;5037752;28;20139;-69
2022/08/30 14:06:34;;;;;;;8.90;2.38;;;;;;;;;;5037009;28;20385;-69
2022/08/30 14:09:00;;;;;;;6.07;2.10;;;;;;;;;;5037645;28;20079;-69
2022/08/30 14:11:26;;;;;;;6.20;1.98;;;;;;;;;;5037233;28;20124;-69
2022/08/30 14:13:52;;;;;;;7.50;2.22;;;;;;;;;;5037071;28;20036;-69
2022/08/30 14:16:18;;;;;;;5.35;2.10;;;;;;;;;;5037079;28;20087;-69
2022/08/30 14:18:45;;;;;;;6.60;2.05;;;;;;;;;;5037133;28;20045;-69
2022/08/30 14:21:11;;;;;;;5.35;2.00;;;;;;;;;;5037603;28;20503;-69
2022/08/30 14:23:37;;;;;;;8.38;2.40;;;;;;;;;;5037042;28;20076;-69
2022/08/30 14:26:06;;;;;;;6.82;2.08;;;;;;;;;;5037499;28;20469;-69
2022/08/30 14:28:32;;;;;;;5.20;2.20;;;;;;;;;;5036811;28;20073;-69
2022/08/30 14:30:58;;;;;;;4.80;2.00;;;;;;;;;;5036608;28;20489;-69
2022/08/30 14:33:24;;;;;;;4.63;2.40;;;;;;;;;;5036941;28;20041;-69
2022/08/30 14:35:51;;;;;;;11.88;1.95;;;;;;;;;;5037048;28;20504;-69
2022/08/30 14:38:17;;;;;;;8.57;1.90;;;;;;;;;;5036510;28;20045;-69
2022/08/30 14:40:43;;;;;;;5.05;1.70;;;;;;;;;;5036278;28;20094;-69
2022/08/30 14:43:09;;;;;;;5.80;1.90;;;;;;;;;;5036407;28;20040;-69
2022/08/30 14:45:37;;;;;;;7.50;1.88;;;;;;;;;;5036871;28;20049;-69
2022/08/30 14:48:08;;;;;;;4.68;2.15;;;;;;;;;;5037041;28;20073;-69
2022/08/30 14:50:34;;;;;;;6.63;2.13;;;;;;;;;;5036495;28;20042;-69
2022/08/30 14:53:00;;;;;;;6.93;2.67;;;;;;;;;;5036928;28;20033;-69
2022/08/30 14:55:28;;;;;;;5.85;2.00;;;;;;;;;;5036396;28;20038;-69